Time;durP1;ratioP1;P1;durP2;ratioP2;P2;SDS_P1;SDS_P2;PMS_P1;PMS_P2;Temp;Humidity;BMP_temperature;BMP_pressure;BME280_temperature;BME280_humidity;BME280_pressure;Samples;Min_cycle;Max_cycle;Signal;HPM_P1;HPM_P2
2021/12/13 00:02:03;;;;;;;186.95;93.27;;;;;;;-0.15;75.23;101117.52;2102636;84;28094;-62
2021/12/13 00:05:25;;;;;;;189.50;94.17;;;;;;;-0.13;75.18;101113.16;2063239;85;32553;-62
2021/12/13 00:08:31;;;;;;;199.17;92.95;;;;;;;-0.07;75.46;101107.05;2102733;84;33326;-62
2021/12/13 00:11:37;;;;;;;185.50;91.60;;;;;;;-0.02;75.40;101104.02;2100982;84;29677;-64
2021/12/13 00:14:44;;;;;;;185.22;89.40;;;;;;;0.01;75.49;101098.75;2057397;86;27738;-66
2021/12/13 00:17:50;;;;;;;186.30;90.25;;;;;;;0.03;75.22;101105.36;2117839;83;29115;-62
2021/12/13 00:20:59;;;;;;;197.78;94.47;;;;;;;0.05;75.36;101104.94;2120804;84;31037;-68
2021/12/13 00:24:06;;;;;;;189.25;94.62;;;;;;;0.07;75.41;101108.47;2120870;84;33771;-63
2021/12/13 00:27:19;;;;;;;189.07;91.63;;;;;;;0.09;75.44;101110.66;2118468;84;29350;-62
2021/12/13 00:30:41;;;;;;;192.70;88.10;;;;;;;0.12;75.35;101114.63;2121140;84;28104;-64
2021/12/13 00:34:23;;;;;;;186.45;88.97;;;;;;;0.11;75.39;101119.03;2032008;87;29895;-62
2021/12/13 00:37:36;;;;;;;185.28;87.35;;;;;;;0.09;75.22;101111.55;2013501;87;32383;-64
2021/12/13 00:40:50;;;;;;;187.10;88.15;;;;;;;0.09;75.36;101114.61;2007598;88;33458;-62
2021/12/13 00:44:08;;;;;;;185.43;88.70;;;;;;;0.07;75.36;101110.66;2007466;88;31222;-62
2021/12/13 00:47:24;;;;;;;204.55;97.82;;;;;;;0.09;75.54;101114.19;2009084;87;27775;-62
2021/12/13 00:50:46;;;;;;;179.27;84.32;;;;;;;0.11;75.45;101112.86;2007497;88;29901;-62
2021/12/13 00:53:50;;;;;;;186.50;88.25;;;;;;;0.11;75.35;101114.19;1912213;93;31911;-62
2021/12/13 00:57:07;;;;;;;181.47;87.17;;;;;;;0.05;75.38;101116.34;1904639;93;33990;-61
2021/12/13 01:00:26;;;;;;;163.55;79.85;;;;;;;-0.01;75.21;101118.95;1888769;93;30273;-74
2021/12/13 01:03:48;;;;;;;182.07;84.55;;;;;;;0.00;75.40;101116.77;1887959;94;27904;-62
2021/12/13 01:07:35;;;;;;;169.65;85.03;;;;;;;-0.03;75.39;101120.69;1888015;94;29584;-66
2021/12/13 01:11:04;;;;;;;178.25;83.47;;;;;;;-0.02;75.72;101128.59;1917027;91;31567;-74
2021/12/13 01:14:37;;;;;;;178.05;84.37;;;;;;;0.04;75.78;101129.52;1950165;91;34491;-70
2021/12/13 01:18:04;;;;;;;181.15;88.25;;;;;;;0.04;75.81;101135.66;1973856;89;29118;-60
2021/12/13 01:21:27;;;;;;;174.47;84.17;;;;;;;0.07;75.90;101136.13;1982164;88;29490;-68
2021/12/13 01:24:41;;;;;;;184.37;84.40;;;;;;;0.07;75.90;101132.19;1982267;88;28665;-66
2021/12/13 01:27:46;;;;;;;167.68;83.33;;;;;;;0.10;76.03;101134.39;1984148;88;31036;-62
2021/12/13 01:30:59;;;;;;;173.50;88.15;;;;;;;0.12;76.08;101137.02;1980456;89;34139;-73
2021/12/13 01:34:04;;;;;;;179.47;91.78;;;;;;;0.14;76.11;101128.70;2011949;87;29358;-73
2021/12/13 01:37:14;;;;;;;156.78;84.55;;;;;;;0.14;76.12;101131.34;2034573;87;27667;-71
2021/12/13 01:40:15;;;;;;;196.37;93.30;;;;;;;0.18;76.33;101128.28;2035048;86;28884;-71
2021/12/13 01:43:22;;;;;;;201.30;101.40;;;;;;;0.19;76.31;101126.98;2035280;87;31051;-76
2021/12/13 01:46:25;;;;;;;213.55;104.03;;;;;;;0.22;76.46;101129.65;2035516;87;33388;-75
2021/12/13 01:49:34;;;;;;;204.30;103.32;;;;;;;0.26;76.52;101126.59;2035044;86;30435;-73
2021/12/13 01:52:38;;;;;;;197.28;96.67;;;;;;;0.29;76.55;101127.48;2035502;86;27801;-75
2021/12/13 01:56:09;;;;;;;250.97;130.57;;;;;;;0.32;76.56;101125.32;2035446;87;29084;-73
2021/12/13 02:02:43;;;;;;;177.90;86.78;;;;;;;0.34;76.72;101116.95;2080032;85;34197;-75
2021/12/13 02:05:48;;;;;;;171.02;86.95;;;;;;;0.39;76.75;101120.97;2065292;86;29366;-73
2021/12/13 02:08:53;;;;;;;;;;;;;;;0.39;76.73;101119.20;2166234;78;27605;-59
2021/12/13 02:11:58;;;;;;;169.87;82.47;;;;;;;0.43;76.86;101115.71;2213940;80;28671;-61
2021/12/13 02:18:26;;;;;;;169.07;83.90;;;;;;;0.51;77.00;101125.39;2213575;80;34128;-61
2021/12/13 02:21:33;;;;;;;159.80;82.15;;;;;;;0.53;76.85;101124.97;2213365;80;30706;-59
2021/12/13 02:24:37;;;;;;;165.57;82.42;;;;;;;0.50;76.86;101131.12;2213930;80;27650;-60
2021/12/13 02:27:43;;;;;;;158.00;82.00;;;;;;;0.47;76.84;101128.45;2214096;80;29483;-59
2021/12/13 02:30:54;;;;;;;167.40;86.40;;;;;;;0.46;76.92;101124.06;2213474;80;32477;-59
2021/12/13 02:34:01;;;;;;;174.18;83.70;;;;;;;0.43;76.87;101119.66;2213908;80;32943;-65
2021/12/13 02:37:05;;;;;;;173.55;85.05;;;;;;;0.47;77.06;101128.91;2213601;80;30506;-59
2021/12/13 02:40:10;;;;;;;167.50;84.83;;;;;;;0.46;77.14;101125.37;2214292;80;27649;-59
2021/12/13 02:43:15;;;;;;;170.72;87.70;;;;;;;0.50;77.21;101134.20;2213805;79;28637;-59
2021/12/13 02:46:18;;;;;;;182.88;94.47;;;;;;;0.54;77.38;101125.00;2214054;80;31020;-59
2021/12/13 02:49:21;;;;;;;163.28;86.85;;;;;;;0.57;77.20;101127.66;2213612;80;33084;-60
2021/12/13 02:52:24;;;;;;;164.43;86.42;;;;;;;0.60;77.27;101133.37;2213537;80;29703;-58
2021/12/13 02:55:29;;;;;;;166.03;84.97;;;;;;;0.63;77.32;101133.39;2214023;80;27680;-60
2021/12/13 02:58:33;;;;;;;167.85;82.00;;;;;;;0.68;77.39;101119.77;2213575;80;30031;-59
2021/12/13 03:01:46;;;;;;;159.78;82.27;;;;;;;0.73;77.45;101123.31;2213956;80;32187;-58
2021/12/13 03:04:50;;;;;;;167.85;84.03;;;;;;;0.78;77.33;101121.14;2213846;80;33789;-58
2021/12/13 03:07:56;;;;;;;129.57;67.47;;;;;;;0.78;77.40;101127.73;2196847;81;37151;-58
2021/12/13 03:11:03;;;;;;;169.68;86.02;;;;;;;0.81;77.36;101125.12;2183391;81;27692;-61
2021/12/13 03:14:10;;;;;;;163.85;85.97;;;;;;;0.84;77.46;101119.83;2212178;80;28688;-65
2021/12/13 03:17:29;;;;;;;175.95;86.42;;;;;;;0.88;77.47;101122.92;2171172;82;32064;-64
2021/12/13 03:20:59;;;;;;;169.00;83.07;;;;;;;0.91;77.45;101121.63;2183280;81;32898;-68
2021/12/13 03:24:37;;;;;;;170.10;85.65;;;;;;;0.93;77.43;101125.58;2206560;80;29383;-61
2021/12/13 03:28:35;;;;;;;167.07;87.82;;;;;;;0.97;77.53;101126.04;2206522;80;27704;-63
2021/12/13 03:31:42;;;;;;;167.10;83.97;;;;;;;1.01;77.58;101126.05;2206813;80;28608;-66
2021/12/13 03:34:58;;;;;;;163.05;83.17;;;;;;;1.06;77.58;101128.72;2206287;80;31076;-61
2021/12/13 03:38:11;;;;;;;172.32;86.20;;;;;;;1.09;77.63;101131.80;2201512;80;33012;-66
2021/12/13 03:41:18;;;;;;;157.27;84.07;;;;;;;1.13;77.65;101134.45;2205582;80;29407;-68
2021/12/13 03:44:25;;;;;;;158.37;82.30;;;;;;;1.17;77.59;101136.22;2206794;80;27858;-68
2021/12/13 03:47:35;;;;;;;164.82;83.58;;;;;;;1.21;77.62;101132.72;2196963;81;28015;-65
2021/12/13 03:50:40;;;;;;;170.28;85.47;;;;;;;1.22;77.61;101132.27;2183391;81;30992;-67
2021/12/13 03:53:51;;;;;;;163.70;83.92;;;;;;;1.24;77.61;101131.84;2120458;82;28811;-63
2021/12/13 03:56:56;;;;;;;163.32;82.62;;;;;;;1.28;77.68;101136.67;2189806;81;29413;-67
2021/12/13 03:59:59;;;;;;;166.47;88.50;;;;;;;1.31;77.66;101138.01;2140581;82;28012;-66
2021/12/13 04:03:04;;;;;;;157.65;80.53;;;;;;;1.31;77.58;101136.27;2206213;80;28664;-59
2021/12/13 04:06:06;;;;;;;165.32;84.10;;;;;;;1.34;77.59;101129.65;2206637;80;31864;-58
2021/12/13 04:09:09;;;;;;;157.43;82.02;;;;;;;1.36;77.62;101138.91;2213520;79;33499;-59
2021/12/13 04:12:14;;;;;;;173.72;82.40;;;;;;;1.38;77.57;101129.66;2217614;80;29853;-57
2021/12/13 04:15:49;;;;;;;161.37;84.28;;;;;;;1.37;77.52;101126.16;2217964;80;27763;-62
2021/12/13 04:22:00;;;;;;;163.80;83.40;;;;;;;1.42;77.67;101135.39;2218002;80;31217;-60
2021/12/13 04:25:07;;;;;;;165.77;85.12;;;;;;;1.43;77.55;101139.34;2217898;80;32946;-59
2021/12/13 04:28:23;;;;;;;161.47;82.80;;;;;;;1.41;77.45;101150.34;2201796;80;30270;-59
2021/12/13 04:31:30;;;;;;;162.77;83.65;;;;;;;1.42;77.62;101144.63;2222647;80;27843;-59
2021/12/13 04:34:36;;;;;;;159.32;81.47;;;;;;;1.43;77.69;101139.80;2179582;81;29670;-62
2021/12/13 04:37:41;;;;;;;165.30;82.62;;;;;;;1.44;77.64;101139.78;2201326;80;32647;-71
2021/12/13 04:40:43;;;;;;;163.30;84.67;;;;;;;1.44;77.60;101140.24;2222512;80;34163;-64
2021/12/13 04:43:46;;;;;;;164.13;82.57;;;;;;;1.44;77.53;101145.06;2199515;80;30588;-71
2021/12/13 04:46:53;;;;;;;148.68;80.67;;;;;;;1.43;77.59;101138.48;2199852;80;27693;-66
2021/12/13 04:50:09;;;;;;;164.47;83.58;;;;;;;1.40;77.59;101140.69;2199284;80;29576;-64
2021/12/13 04:53:18;;;;;;;164.95;82.35;;;;;;;1.40;77.61;101144.64;2101387;84;31031;-71
2021/12/13 04:56:24;;;;;;;169.85;85.12;;;;;;;1.41;77.70;101153.43;2117340;84;33533;-61
2021/12/13 04:59:28;;;;;;;159.20;80.40;;;;;;;1.43;77.78;101140.66;2117707;84;30644;-65
2021/12/13 05:02:30;;;;;;;157.27;82.70;;;;;;;1.46;77.86;101137.17;2119532;82;27799;-64
2021/12/13 05:05:35;;;;;;;156.10;82.53;;;;;;;1.48;77.84;101136.73;2094123;84;30037;-68
2021/12/13 05:08:39;;;;;;;154.10;81.60;;;;;;;1.50;77.86;101141.13;2120002;81;30839;-60
2021/12/13 05:11:46;;;;;;;159.87;83.80;;;;;;;1.53;77.86;101144.66;2123827;83;34144;-59
2021/12/13 05:14:55;;;;;;;159.85;81.10;;;;;;;1.53;77.90;101138.92;2123537;83;29921;-59
2021/12/13 05:17:59;;;;;;;159.12;82.97;;;;;;;1.56;77.89;101150.81;2123501;83;27746;-58
2021/12/13 05:21:09;;;;;;;158.87;79.92;;;;;;;1.57;77.87;101136.73;2142044;83;32389;-59
2021/12/13 05:24:24;;;;;;;157.07;79.42;;;;;;;1.58;77.92;101141.14;2140145;83;32045;-67
2021/12/13 05:27:36;;;;;;;153.32;79.70;;;;;;;1.60;77.92;101148.63;2141599;83;33885;-66
2021/12/13 05:30:46;;;;;;;154.75;81.63;;;;;;;1.61;77.88;101149.49;2183391;80;29371;-58
2021/12/13 05:33:53;;;;;;;167.07;83.55;;;;;;;1.62;77.94;101159.18;2196816;81;27712;-58
2021/12/13 05:36:58;;;;;;;170.80;88.72;;;;;;;1.60;77.91;101143.34;2183313;81;29535;-60
2021/12/13 05:40:08;;;;;;;179.63;89.90;;;;;;;1.61;77.93;101147.75;2183483;81;31815;-60
2021/12/13 05:43:18;;;;;;;177.40;90.22;;;;;;;1.62;77.98;101142.02;2183117;81;34367;-58
2021/12/13 05:46:40;;;;;;;176.85;90.72;;;;;;;1.63;78.00;101143.77;2206923;80;29325;-66
2021/12/13 05:49:44;;;;;;;171.60;87.57;;;;;;;1.66;78.06;101143.78;2087023;85;27775;-71
2021/12/13 05:52:46;;;;;;;178.47;91.15;;;;;;;1.66;78.08;101142.01;2055957;86;28659;-61
2021/12/13 05:56:02;;;;;;;178.12;88.85;;;;;;;1.68;78.09;101147.31;2033804;87;31069;-59
2021/12/13 05:59:18;;;;;;;174.70;88.70;;;;;;;1.70;78.11;101153.48;2045836;86;33657;-66
2021/12/13 06:02:48;;;;;;;178.78;89.58;;;;;;;1.72;78.10;101158.33;2067412;86;29769;-72
2021/12/13 06:05:52;;;;;;;177.05;89.85;;;;;;;1.72;78.07;101160.97;2067441;85;27801;-59
2021/12/13 06:08:58;;;;;;;180.20;93.03;;;;;;;1.73;78.15;101160.09;2065598;84;28278;-72
2021/12/13 06:12:05;;;;;;;201.30;100.12;;;;;;;1.72;78.08;101167.58;2067618;86;31159;-59
2021/12/13 06:15:21;;;;;;;184.87;97.30;;;;;;;1.70;78.07;101170.65;2067580;86;32855;-70
2021/12/13 06:18:28;;;;;;;197.60;97.12;;;;;;;1.69;78.13;101164.02;2065038;86;30344;-59
2021/12/13 06:21:50;;;;;;;185.73;93.52;;;;;;;1.71;78.25;101170.19;2067648;86;27821;-61
2021/12/13 06:25:00;;;;;;;189.70;96.90;;;;;;;1.73;78.31;101173.30;2067461;86;29142;-66
2021/12/13 06:28:03;;;;;;;188.07;93.60;;;;;;;1.73;78.20;101178.58;2181040;81;31250;-59
2021/12/13 06:31:19;;;;;;;182.78;93.67;;;;;;;1.73;78.24;101186.51;2183465;81;33029;-72
2021/12/13 06:34:24;;;;;;;;;;;;;;;1.74;78.32;101185.59;2186231;81;29871;-71
2021/12/13 06:37:30;;;;;;;178.67;91.70;;;;;;;1.73;78.32;101182.55;2183627;81;27731;-66
2021/12/13 06:40:32;;;;;;;186.25;94.13;;;;;;;1.73;78.31;101186.93;2183565;81;28696;-70
2021/12/13 06:43:46;;;;;;;181.80;91.22;;;;;;;1.74;78.31;101184.28;2183242;81;31981;-66
2021/12/13 06:47:02;;;;;;;188.22;94.92;;;;;;;1.75;78.32;101188.68;2182893;81;33715;-70
2021/12/13 06:50:05;;;;;;;192.75;95.92;;;;;;;1.76;78.31;101196.19;2183645;81;29352;-72
2021/12/13 06:53:17;;;;;;;194.55;95.62;;;;;;;1.77;78.39;101190.89;2183320;81;28219;-70
2021/12/13 06:56:27;;;;;;;197.28;96.78;;;;;;;1.79;78.33;101188.27;2183429;81;28817;-59
2021/12/13 06:59:33;;;;;;;187.27;97.17;;;;;;;1.79;78.35;101190.91;2183321;81;31113;-58
2021/12/13 07:02:48;;;;;;;205.43;100.20;;;;;;;1.81;78.39;101198.41;2183593;81;32942;-60
2021/12/13 07:06:00;;;;;;;208.07;102.15;;;;;;;1.81;78.41;101197.08;2145719;83;29367;-59
2021/12/13 07:09:10;;;;;;;218.22;109.30;;;;;;;1.81;78.41;101200.59;2171801;81;27639;-59
2021/12/13 07:12:15;;;;;;;217.45;112.45;;;;;;;1.83;78.43;101203.22;2178859;81;30768;-58
2021/12/13 07:15:44;;;;;;;237.32;113.25;;;;;;;1.85;78.37;101212.48;2213787;80;31163;-61
2021/12/13 07:19:06;;;;;;;311.45;139.45;;;;;;;1.84;78.37;101219.97;2215581;80;34145;-58
2021/12/13 07:22:08;;;;;;;375.35;164.55;;;;;;;1.84;78.40;101216.87;2213619;80;29693;-63
2021/12/13 07:25:15;;;;;;;333.98;145.60;;;;;;;1.86;78.43;101219.54;2217829;80;27690;-58
2021/12/13 07:28:33;;;;;;;280.62;136.35;;;;;;;1.86;78.44;101219.54;2217492;80;29571;-68
2021/12/13 07:31:36;;;;;;;269.15;123.33;;;;;;;1.88;78.49;101230.99;2217528;80;31179;-66
2021/12/13 07:35:05;;;;;;;260.57;120.00;;;;;;;1.88;78.46;101233.18;2217985;80;32970;-59
2021/12/13 07:38:25;;;;;;;245.20;115.05;;;;;;;1.91;78.54;101237.58;2217522;80;30206;-58
2021/12/13 07:41:51;;;;;;;238.50;109.97;;;;;;;1.94;78.46;101238.91;2217754;80;27688;-59
2021/12/13 07:44:53;;;;;;;233.17;109.22;;;;;;;1.98;78.50;101244.64;2216141;80;29874;-57
2021/12/13 07:47:59;;;;;;;241.57;110.57;;;;;;;2.00;78.51;101245.53;2218196;80;31344;-57
2021/12/13 07:51:22;;;;;;;227.97;105.30;;;;;;;2.04;78.50;101242.45;2217941;80;33707;-66
2021/12/13 07:54:26;;;;;;;225.90;106.40;;;;;;;2.06;78.46;101242.01;2209311;80;35167;-58
2021/12/13 07:57:32;;;;;;;233.38;108.27;;;;;;;2.10;78.48;101249.07;2217944;80;27699;-64
2021/12/13 08:00:39;;;;;;;238.87;111.85;;;;;;;2.15;78.48;101253.93;2217789;79;28630;-67
2021/12/13 08:03:49;;;;;;;239.38;113.90;;;;;;;2.19;78.43;101246.42;2217594;80;31005;-69
2021/12/13 08:06:56;;;;;;;232.90;108.60;;;;;;;2.23;78.46;101250.83;2179304;81;33851;-58
2021/12/13 08:10:09;;;;;;;241.78;110.03;;;;;;;2.28;78.42;101251.73;2203927;80;29363;-64
2021/12/13 08:13:19;;;;;;;263.50;117.93;;;;;;;2.34;78.41;101257.45;2196983;81;27658;-58
2021/12/13 08:16:32;;;;;;;255.37;118.22;;;;;;;2.39;78.37;101253.05;2197332;80;29887;-68
2021/12/13 08:19:34;;;;;;;261.68;120.75;;;;;;;2.43;78.33;101253.92;2188411;81;31911;-63
2021/12/13 08:22:43;;;;;;;244.70;116.93;;;;;;;2.45;78.26;101252.59;2189628;81;34246;-65
2021/12/13 08:25:48;;;;;;;250.40;117.33;;;;;;;2.50;78.33;101250.83;2190045;81;29358;-59
2021/12/13 08:28:54;;;;;;;256.45;122.00;;;;;;;2.56;78.29;101253.02;2190007;81;27766;-62
2021/12/13 08:31:59;;;;;;;265.98;123.00;;;;;;;2.65;78.29;101260.52;2190224;81;28909;-65
2021/12/13 08:35:01;;;;;;;;;;;;;;;2.70;78.27;101260.05;2192623;81;30408;-58
2021/12/13 08:38:03;;;;;;;276.98;123.47;;;;;;;2.78;78.21;101263.58;2189876;81;34204;-64
2021/12/13 08:41:36;;;;;;;277.27;126.90;;;;;;;2.80;78.19;101264.89;2188462;81;27611;-63
2021/12/13 08:44:46;;;;;;;293.55;133.05;;;;;;;2.85;78.21;101267.09;2186167;81;27706;-62
2021/12/13 08:47:52;;;;;;;285.15;134.80;;;;;;;2.90;78.19;101271.91;2179210;81;28498;-58
2021/12/13 08:50:59;;;;;;;291.23;133.30;;;;;;;2.95;78.17;101280.73;2189180;81;31423;-61
2021/12/13 08:54:09;;;;;;;271.30;126.67;;;;;;;3.05;78.19;101284.24;2189869;81;33418;-63
2021/12/13 08:57:44;;;;;;;274.82;123.70;;;;;;;3.13;78.13;101286.45;2190144;81;30141;-71
2021/12/13 09:00:59;;;;;;;251.12;119.05;;;;;;;3.21;78.14;101277.58;2190029;81;27682;-64
2021/12/13 09:04:01;;;;;;;230.52;108.65;;;;;;;3.30;78.15;101280.21;2189707;81;30096;-60
2021/12/13 09:07:09;;;;;;;249.60;111.22;;;;;;;3.36;78.09;101285.92;2190075;81;31024;-68
2021/12/13 09:10:11;;;;;;;205.65;96.55;;;;;;;3.43;78.03;101281.02;2189853;81;33008;-59
2021/12/13 09:13:17;;;;;;;196.12;93.07;;;;;;;3.50;78.00;101282.31;2189903;81;30305;-62
2021/12/13 09:16:24;;;;;;;189.50;90.00;;;;;;;3.56;77.97;101286.70;2190220;81;27598;-66
2021/12/13 09:19:31;;;;;;;189.90;92.02;;;;;;;3.61;77.86;101290.67;2189760;81;29105;-61
2021/12/13 09:22:43;;;;;;;179.27;81.80;;;;;;;3.62;77.77;101291.98;2190194;81;31651;-59
2021/12/13 09:25:54;;;;;;;168.45;82.92;;;;;;;3.64;77.75;101292.86;2189732;81;34145;-64
2021/12/13 09:29:03;;;;;;;175.12;86.35;;;;;;;3.65;77.68;101287.09;2189907;81;29332;-63
2021/12/13 09:32:12;;;;;;;176.55;90.12;;;;;;;3.66;77.65;101283.56;2190043;81;27737;-68
2021/12/13 09:35:31;;;;;;;157.43;83.30;;;;;;;3.67;77.66;101287.97;2189942;81;28792;-64
2021/12/13 09:39:11;;;;;;;160.57;83.35;;;;;;;3.65;77.56;101286.67;2189634;81;32319;-63
2021/12/13 09:42:15;;;;;;;169.05;82.72;;;;;;;3.67;77.60;101291.95;2190026;81;33441;-59
2021/12/13 09:45:31;;;;;;;173.87;86.53;;;;;;;3.64;77.57;101291.53;2190047;81;28614;-62
2021/12/13 09:48:36;;;;;;;;;;;;;;;3.65;77.65;101291.97;2185798;81;28051;-59
2021/12/13 09:51:46;;;;;;;192.53;86.45;;;;;;;3.67;77.65;101293.27;2188945;81;29564;-61
2021/12/13 09:54:59;;;;;;;179.15;87.75;;;;;;;3.67;77.58;101297.25;2189949;81;31052;-59
2021/12/13 09:58:07;;;;;;;186.05;87.85;;;;;;;3.68;77.60;101299.02;2189538;81;34170;-59
2021/12/13 10:01:23;;;;;;;186.67;88.50;;;;;;;3.69;77.62;101303.89;2189179;81;30626;-59
2021/12/13 10:04:37;;;;;;;;;;;;;;;3.73;77.72;101295.01;2192502;81;27518;-60
2021/12/13 10:07:42;;;;;;;174.95;89.87;;;;;;;3.79;77.78;101292.34;2206193;80;28686;-60
2021/12/13 10:10:47;;;;;;;;;;;;;;;3.83;77.73;101294.52;2199412;81;30932;-59
2021/12/13 10:13:50;;;;;;;200.63;91.60;;;;;;;3.90;77.81;101297.13;2158998;82;34231;-66
2021/12/13 10:16:55;;;;;;;209.37;95.07;;;;;;;3.95;77.78;101293.14;2181420;81;29353;-65
2021/12/13 10:20:02;;;;;;;204.03;96.28;;;;;;;4.02;77.89;101297.96;2197085;81;27683;-64
2021/12/13 10:23:09;;;;;;;194.20;87.78;;;;;;;4.10;77.84;101300.10;2197012;81;28723;-59
2021/12/13 10:26:13;;;;;;;196.87;85.12;;;;;;;4.15;77.75;101300.95;2197078;81;31033;-59
2021/12/13 10:29:17;;;;;;;204.23;91.87;;;;;;;4.19;77.70;101300.48;2196861;81;34179;-58
2021/12/13 10:32:24;;;;;;;194.95;92.70;;;;;;;4.16;77.52;101294.77;2197081;81;29483;-60
2021/12/13 10:35:32;;;;;;;216.40;105.67;;;;;;;4.13;77.39;101302.73;2197194;81;27672;-69
2021/12/13 10:38:43;;;;;;;212.25;100.30;;;;;;;4.10;77.49;101297.45;2197173;81;28648;-58
2021/12/13 10:41:49;;;;;;;198.43;89.15;;;;;;;4.08;77.46;101297.90;2196536;81;31453;-59
2021/12/13 10:44:51;;;;;;;189.47;92.47;;;;;;;4.09;77.50;101297.91;2196507;81;34172;-68
2021/12/13 10:48:01;;;;;;;204.90;90.50;;;;;;;4.12;77.55;101297.00;2197000;81;30465;-60
2021/12/13 10:51:10;;;;;;;179.42;82.62;;;;;;;4.16;77.60;101297.84;2197235;81;27694;-65
2021/12/13 10:54:17;;;;;;;165.73;76.20;;;;;;;4.19;77.54;101293.42;2196567;79;28651;-60
2021/12/13 10:57:25;;;;;;;152.57;71.70;;;;;;;4.19;77.53;101291.20;2191912;81;32191;-71
2021/12/13 11:00:35;;;;;;;158.30;70.67;;;;;;;4.24;77.49;101298.23;2194504;79;33279;-67
2021/12/13 11:03:38;;;;;;;147.25;69.20;;;;;;;4.25;77.40;101297.34;2195855;81;30061;-60
2021/12/13 11:06:42;;;;;;;153.07;68.75;;;;;;;4.26;77.50;101296.45;2196617;81;27681;-58
2021/12/13 11:09:46;;;;;;;146.47;68.80;;;;;;;4.30;77.47;101297.76;2197156;81;29454;-71
2021/12/13 11:12:53;;;;;;;133.35;61.77;;;;;;;4.33;77.47;101298.61;2196920;81;31045;-71
2021/12/13 11:15:59;;;;;;;145.25;62.62;;;;;;;4.36;77.40;101297.73;2196458;81;34006;-64
2021/12/13 11:19:05;;;;;;;138.22;63.45;;;;;;;4.38;77.35;101294.16;2196999;81;29337;-66
2021/12/13 11:22:18;;;;;;;149.62;71.17;;;;;;;4.39;77.39;101293.70;2196803;81;27671;-59
2021/12/13 11:25:34;;;;;;;144.07;73.57;;;;;;;4.43;77.38;101297.23;2194957;81;29919;-64
2021/12/13 11:28:37;;;;;;;205.98;113.92;;;;;;;4.45;77.37;101297.64;2196854;81;31704;-60
2021/12/13 11:32:00;;;;;;;203.45;108.70;;;;;;;4.45;77.37;101294.98;2196589;81;34333;-67
2021/12/13 11:35:36;;;;;;;204.47;107.67;;;;;;;4.46;77.44;101297.21;2092504;84;30671;-66
2021/12/13 11:39:05;;;;;;;169.80;82.05;;;;;;;4.46;77.43;101298.07;2093018;84;27733;-61
2021/12/13 11:42:50;;;;;;;148.17;68.25;;;;;;;4.44;77.48;101298.53;2092891;84;29976;-64
2021/12/13 11:46:34;;;;;;;128.57;61.28;;;;;;;4.44;77.48;101300.31;2092551;84;32155;-67
2021/12/13 11:50:10;;;;;;;132.22;61.20;;;;;;;4.40;77.39;101304.31;2092529;85;34389;-68
2021/12/13 11:53:58;;;;;;;133.50;63.87;;;;;;;4.39;77.45;101305.63;2092690;84;30724;-70
2021/12/13 11:57:31;;;;;;;153.35;72.72;;;;;;;4.38;77.44;101298.59;2092523;84;27749;-61
2021/12/13 12:01:18;;;;;;;142.57;63.98;;;;;;;4.38;77.56;101290.64;2092513;84;29704;-70
2021/12/13 12:05:05;;;;;;;138.45;63.68;;;;;;;4.36;77.51;101288.44;2092657;85;31109;-67
2021/12/13 12:08:46;;;;;;;129.95;60.38;;;;;;;4.36;77.50;101292.42;2092863;85;34212;-60
2021/12/13 12:12:32;;;;;;;149.53;61.65;;;;;;;4.36;77.52;101299.05;2138581;80;30698;-68
2021/12/13 12:15:40;;;;;;;129.85;59.18;;;;;;;4.38;77.62;101298.14;2197174;81;37120;-67
2021/12/13 12:18:42;;;;;;;136.05;62.15;;;;;;;4.43;77.65;101300.75;2201232;80;28729;-62
2021/12/13 12:22:07;;;;;;;169.93;79.72;;;;;;;4.46;77.58;101297.21;2191362;80;31348;-59
2021/12/13 12:25:09;;;;;;;261.05;104.12;;;;;;;4.49;77.69;101295.83;2179089;81;34157;-67
2021/12/13 12:28:16;;;;;;;218.50;96.32;;;;;;;4.54;77.67;101298.91;2200855;80;30372;-69
2021/12/13 12:31:18;;;;;;;166.28;81.67;;;;;;;4.59;77.66;101296.63;2155043;81;27671;-70
2021/12/13 12:34:21;;;;;;;175.55;75.35;;;;;;;4.65;77.73;101293.94;2200763;80;29883;-69
2021/12/13 12:37:38;;;;;;;136.15;61.73;;;;;;;4.70;77.65;101286.36;2201122;80;31148;-64
2021/12/13 12:41:01;;;;;;;122.62;60.40;;;;;;;4.76;77.59;101289.86;2163034;82;34102;-70
2021/12/13 12:44:04;;;;;;;105.32;53.68;;;;;;;4.79;77.64;101289.38;2120766;82;29234;-70
2021/12/13 12:47:06;;;;;;;111.70;55.00;;;;;;;4.83;77.57;101289.79;2162596;80;28158;-62
2021/12/13 12:50:26;;;;;;;104.53;52.08;;;;;;;4.88;77.57;101288.88;2200984;80;29851;-63
2021/12/13 12:53:43;;;;;;;120.35;54.33;;;;;;;4.86;77.58;101285.78;2200337;80;31266;-64
2021/12/13 12:56:54;;;;;;;119.95;54.13;;;;;;;4.89;77.65;101286.62;2201163;80;48415;-64
2021/12/13 12:59:56;;;;;;;118.28;55.45;;;;;;;4.92;77.57;101293.23;2201164;80;29386;-71
2021/12/13 13:02:58;;;;;;;105.03;52.15;;;;;;;4.93;77.56;101291.01;2201509;80;27680;-67
2021/12/13 13:06:11;;;;;;;110.55;52.15;;;;;;;4.92;77.44;101288.81;2200838;80;29111;-60
2021/12/13 13:09:13;;;;;;;121.72;53.10;;;;;;;4.92;77.42;101286.59;2200965;80;32067;-64
2021/12/13 13:12:30;;;;;;;127.50;56.95;;;;;;;4.90;77.48;101287.95;2206876;79;33817;-68
2021/12/13 13:15:37;;;;;;;110.42;48.68;;;;;;;4.90;77.50;101295.02;2222731;79;29586;-67
2021/12/13 13:18:40;;;;;;;123.90;49.00;;;;;;;4.89;77.48;101295.91;2220185;79;27608;-64
2021/12/13 13:21:45;;;;;;;111.15;50.05;;;;;;;4.87;77.33;101299.92;2206690;80;29112;-71
2021/12/13 13:24:52;;;;;;;118.47;53.47;;;;;;;4.82;77.40;101302.63;2206534;80;31809;-64
2021/12/13 13:27:53;;;;;;;118.05;52.55;;;;;;;4.80;77.48;101303.09;2206742;80;33938;-67
2021/12/13 13:31:12;;;;;;;111.70;47.05;;;;;;;4.77;77.47;101304.44;2168282;81;30556;-71
2021/12/13 13:34:19;;;;;;;100.18;43.63;;;;;;;4.71;77.33;101301.86;2170050;81;27567;-62
2021/12/13 13:37:26;;;;;;;96.65;43.08;;;;;;;4.66;77.34;101314.28;2183315;81;29871;-67
2021/12/13 13:40:32;;;;;;;104.10;46.02;;;;;;;4.63;77.33;101318.28;2183743;81;31662;-66
2021/12/13 13:43:39;;;;;;;100.95;45.12;;;;;;;4.58;77.40;101313.45;2183586;81;33044;-70
2021/12/13 13:46:40;;;;;;;130.00;53.80;;;;;;;4.54;77.48;101316.16;2183583;81;29321;-65
2021/12/13 13:49:44;;;;;;;150.65;63.13;;;;;;;4.51;77.53;101312.63;2183190;81;27599;-68
2021/12/13 13:52:49;;;;;;;130.27;62.33;;;;;;;4.49;77.55;101323.27;2183600;81;29709;-70
2021/12/13 13:56:12;;;;;;;124.53;55.50;;;;;;;4.48;77.60;101325.91;2183883;81;31882;-64
2021/12/13 13:59:20;;;;;;;119.33;50.52;;;;;;;4.46;77.62;101331.70;2183246;81;33026;-70
2021/12/13 14:02:30;;;;;;;104.55;50.58;;;;;;;4.41;77.67;101331.28;2183356;81;29388;-71
2021/12/13 14:05:38;;;;;;;101.97;48.92;;;;;;;4.38;77.67;101336.60;2182789;81;27660;-69
2021/12/13 14:08:44;;;;;;;115.90;54.13;;;;;;;4.34;77.66;101336.64;2183654;81;28708;-69
2021/12/13 14:12:23;;;;;;;131.03;57.70;;;;;;;4.31;77.68;101330.89;2183311;81;31019;-70
2021/12/13 14:15:36;;;;;;;107.65;47.62;;;;;;;4.27;77.65;101342.44;2182690;81;33949;-71
2021/12/13 14:18:38;;;;;;;101.33;40.70;;;;;;;4.23;77.74;101338.03;2194313;80;28777;-67
2021/12/13 14:21:45;;;;;;;92.42;39.35;;;;;;;4.20;77.78;101339.38;2180980;81;27651;-64
2021/12/13 14:24:48;;;;;;;80.83;37.70;;;;;;;4.16;77.84;101337.20;2182169;81;29487;-64
2021/12/13 14:27:50;;;;;;;94.52;40.15;;;;;;;4.15;77.93;101329.23;2183299;81;31884;-65
2021/12/13 14:30:54;;;;;;;92.92;42.25;;;;;;;4.13;77.94;101339.00;2183227;81;33231;-65
2021/12/13 14:34:01;;;;;;;95.75;41.77;;;;;;;4.09;77.97;101341.66;2183564;81;30127;-71
2021/12/13 14:37:04;;;;;;;92.47;40.85;;;;;;;4.10;77.98;101345.18;2183715;81;27729;-70
2021/12/13 14:40:08;;;;;;;100.92;44.83;;;;;;;4.06;77.91;101344.75;2183436;81;28642;-65